createdAt,value
2022-11-26T00:01:22.098Z,49.03
2022-11-26T00:03:49.634Z,48.35
2022-11-26T00:06:33.541Z,40.67
2022-11-26T00:09:01.063Z,49.65
2022-11-26T00:11:27.935Z,51.17
2022-11-26T00:13:54.619Z,49.97
2022-11-26T00:16:21.357Z,44.85
2022-11-26T00:18:48.045Z,55.22
2022-11-26T00:21:23.026Z,50.50
2022-11-26T00:23:49.903Z,48.35
2022-11-26T00:26:20.044Z,47.90
2022-11-26T00:28:52.957Z,46.88
2022-11-26T00:31:19.805Z,53.83
2022-11-26T00:33:46.797Z,49.47
2022-11-26T00:36:19.507Z,56.80
2022-11-26T00:38:49.315Z,50.60
2022-11-26T00:41:19.104Z,45.83
2022-11-26T00:43:46.496Z,51.15
2022-11-26T00:46:15.217Z,46.78
2022-11-26T00:48:42.180Z,53.78
2022-11-26T00:51:24.731Z,42.60
2022-11-26T00:53:56.223Z,48.90
2022-11-26T00:56:23.407Z,47.97
2022-11-26T00:58:50.688Z,47.78
2022-11-26T01:01:26.070Z,51.35
2022-11-26T01:03:53.079Z,50.40
2022-11-26T01:06:24.426Z,53.22
2022-11-26T01:08:51.384Z,49.97
2022-11-26T01:11:20.995Z,47.80
2022-11-26T01:13:51.090Z,51.95
2022-11-26T01:16:25.114Z,47.58
2022-11-26T01:18:53.806Z,44.75
2022-11-26T01:21:21.544Z,44.63
2022-11-26T01:23:48.541Z,51.35
2022-11-26T01:26:22.943Z,48.08
2022-11-26T01:28:49.659Z,46.90
2022-11-26T01:31:21.746Z,48.25
2022-11-26T01:33:48.843Z,41.78
2022-11-26T01:36:28.161Z,52.47
2022-11-26T01:39:11.583Z,61.05
2022-11-26T01:42:01.351Z,52.70
2022-11-26T01:44:33.710Z,45.28
2022-11-26T01:47:01.204Z,56.25
2022-11-26T01:49:34.198Z,50.08
2022-11-26T01:52:00.718Z,49.37
2022-11-26T01:54:27.444Z,49.10
2022-11-26T01:56:56.111Z,50.05
2022-11-26T01:59:45.304Z,53.65
2022-11-26T02:02:12.518Z,53.70
2022-11-26T02:04:45.598Z,45.85
2022-11-26T02:07:12.553Z,53.00
2022-11-26T02:09:40.195Z,51.80
2022-11-26T02:12:06.927Z,48.92
2022-11-26T02:14:38.368Z,55.15
2022-11-26T02:17:40.342Z,52.35
2022-11-26T02:20:26.052Z,54.22
2022-11-26T02:23:22.810Z,47.70
2022-11-26T02:26:28.335Z,55.20
2022-11-26T02:29:23.653Z,53.93
2022-11-26T02:32:03.404Z,43.00
2022-11-26T02:34:57.021Z,48.42
2022-11-26T02:37:42.216Z,58.67
2022-11-26T02:40:09.339Z,51.40
2022-11-26T02:42:36.883Z,56.87
2022-11-26T02:45:14.422Z,56.13
2022-11-26T02:47:44.546Z,53.92
2022-11-26T02:50:18.983Z,56.30
2022-11-26T02:52:48.379Z,53.33
2022-11-26T02:55:18.340Z,51.13
2022-11-26T02:57:49.328Z,54.88
2022-11-26T03:00:17.458Z,59.65
2022-11-26T03:02:55.996Z,57.83
2022-11-26T03:05:23.371Z,61.27
2022-11-26T03:07:52.874Z,55.45
2022-11-26T03:10:25.457Z,54.90
2022-11-26T03:12:52.231Z,53.92
2022-11-26T03:15:18.919Z,61.45
2022-11-26T03:17:45.723Z,58.88
2022-11-26T03:20:12.449Z,70.47
2022-11-26T03:22:39.205Z,67.93
2022-11-26T03:25:06.860Z,59.92
2022-11-26T03:27:33.773Z,62.07
2022-11-26T03:30:00.421Z,62.43
2022-11-26T03:32:27.092Z,66.13
2022-11-26T03:34:53.747Z,64.10
2022-11-26T03:37:20.613Z,60.90
2022-11-26T03:39:47.349Z,72.20
2022-11-26T03:42:14.006Z,66.20
2022-11-26T03:44:40.855Z,64.23
2022-11-26T03:47:07.648Z,60.20
2022-11-26T03:49:34.491Z,64.37
2022-11-26T03:52:01.141Z,59.00
2022-11-26T03:54:27.877Z,66.03
2022-11-26T03:56:54.503Z,51.37
2022-11-26T03:59:21.115Z,61.57
2022-11-26T04:01:50.474Z,66.67
2022-11-26T04:04:17.307Z,63.07
2022-11-26T04:06:46.989Z,60.93
2022-11-26T04:09:13.631Z,66.80
2022-11-26T04:11:40.345Z,62.33
2022-11-26T04:14:06.951Z,66.20
2022-11-26T04:16:33.597Z,67.13
2022-11-26T04:19:00.270Z,61.87
2022-11-26T04:21:27.084Z,64.33
2022-11-26T04:23:53.834Z,65.37
2022-11-26T04:26:20.654Z,66.03
2022-11-26T04:28:47.225Z,69.43
2022-11-26T04:31:13.956Z,64.10
2022-11-26T04:33:40.648Z,67.63
2022-11-26T04:36:07.541Z,65.00
2022-11-26T04:38:34.610Z,73.63
2022-11-26T04:41:01.381Z,68.33
2022-11-26T04:43:27.996Z,65.30
2022-11-26T04:45:54.760Z,64.97
2022-11-26T04:48:21.469Z,72.37
2022-11-26T04:50:50.085Z,68.90
2022-11-26T04:53:21.606Z,68.50
2022-11-26T04:55:49.557Z,66.72
2022-11-26T04:58:17.442Z,70.27
2022-11-26T05:00:45.988Z,70.70
2022-11-26T05:03:17.385Z,71.60
2022-11-26T05:05:44.078Z,66.53
2022-11-26T05:08:10.839Z,70.00
2022-11-26T05:10:37.575Z,68.00
2022-11-26T05:13:04.312Z,71.83
2022-11-26T05:15:30.930Z,66.00
2022-11-26T05:17:57.534Z,68.00
2022-11-26T05:20:24.355Z,77.68
2022-11-26T05:22:51.003Z,69.93
2022-11-26T05:25:17.912Z,73.27
2022-11-26T05:27:44.501Z,75.47
2022-11-26T05:30:11.688Z,78.07
2022-11-26T05:32:38.418Z,77.67
2022-11-26T05:35:05.424Z,83.27
2022-11-26T05:37:32.173Z,79.07
2022-11-26T05:39:58.803Z,77.73
2022-11-26T05:42:25.462Z,71.67
2022-11-26T05:44:52.158Z,79.78
2022-11-26T05:47:18.745Z,80.50
2022-11-26T05:49:45.377Z,76.17
2022-11-26T05:52:12.116Z,78.57
2022-11-26T05:54:39.256Z,76.17
2022-11-26T05:57:06.093Z,83.87
2022-11-26T05:59:32.838Z,83.77
2022-11-26T06:01:59.574Z,83.63
2022-11-26T06:04:26.327Z,88.95
2022-11-26T06:06:53.054Z,89.93
2022-11-26T06:09:19.730Z,87.40
2022-11-26T06:11:46.397Z,86.83
2022-11-26T06:14:13.005Z,85.05
2022-11-26T06:16:39.671Z,95.73
2022-11-26T06:19:06.389Z,97.43
2022-11-26T06:21:33.194Z,92.88
2022-11-26T06:24:00.046Z,88.53
2022-11-26T06:26:26.823Z,88.33
2022-11-26T06:28:53.526Z,90.30
2022-11-26T06:31:20.580Z,86.47
2022-11-26T06:33:47.270Z,90.57
2022-11-26T06:36:13.868Z,98.63
2022-11-26T06:38:40.424Z,94.87
2022-11-26T06:41:08.416Z,85.50
2022-11-26T06:43:36.180Z,85.43
2022-11-26T06:46:05.087Z,84.43
2022-11-26T06:48:32.867Z,93.27
2022-11-26T06:51:04.918Z,83.93
2022-11-26T06:53:32.061Z,102.33
2022-11-26T06:56:03.823Z,87.67
2022-11-26T06:58:31.516Z,77.27
2022-11-26T07:00:58.415Z,82.33
2022-11-26T07:03:30.505Z,93.60
2022-11-26T07:05:59.862Z,82.67
2022-11-26T07:08:27.702Z,80.03
2022-11-26T07:10:54.401Z,105.53
2022-11-26T07:13:21.063Z,94.63
2022-11-26T07:15:47.799Z,85.27
2022-11-26T07:18:14.483Z,87.13
2022-11-26T07:20:41.132Z,103.20
2022-11-26T07:23:07.727Z,92.73
2022-11-26T07:25:34.294Z,83.00
2022-11-26T07:28:00.951Z,77.67
2022-11-26T07:30:28.687Z,97.03
2022-11-26T07:32:55.578Z,134.00
2022-11-26T07:35:22.394Z,87.60
2022-11-26T07:37:49.035Z,94.93
2022-11-26T07:40:15.729Z,74.93
2022-11-26T07:42:42.357Z,81.87
2022-11-26T07:45:09.402Z,83.25
2022-11-26T07:47:36.068Z,106.80
2022-11-26T07:50:03.763Z,91.50
2022-11-26T07:52:30.451Z,97.43
2022-11-26T07:54:57.079Z,99.60
2022-11-26T07:57:25.070Z,78.32
2022-11-26T07:59:51.700Z,95.43
2022-11-26T08:02:18.745Z,126.93
2022-11-26T08:04:45.462Z,102.15
2022-11-26T08:07:16.210Z,85.50
2022-11-26T08:09:48.597Z,86.47
2022-11-26T08:12:15.223Z,89.87
2022-11-26T08:14:41.787Z,86.83
2022-11-26T08:17:08.483Z,103.77
2022-11-26T08:19:35.076Z,90.63
2022-11-26T08:22:01.715Z,70.83
2022-11-26T08:24:28.410Z,83.43
2022-11-26T08:26:55.034Z,111.57
2022-11-26T08:29:21.613Z,87.03
2022-11-26T08:31:48.273Z,95.47
2022-11-26T08:34:15.806Z,105.57
2022-11-26T08:36:42.931Z,90.43
2022-11-26T08:39:13.615Z,104.67
2022-11-26T08:41:40.190Z,86.83
2022-11-26T08:44:08.761Z,86.20
2022-11-26T08:46:39.516Z,118.13
2022-11-26T08:49:09.318Z,104.03
2022-11-26T08:51:36.432Z,92.67
2022-11-26T08:54:03.428Z,111.00
2022-11-26T08:56:30.131Z,83.93
2022-11-26T08:58:56.780Z,109.47
2022-11-26T09:01:26.462Z,87.37
2022-11-26T09:03:57.973Z,88.93
2022-11-26T09:06:26.594Z,84.15
2022-11-26T09:09:11.553Z,130.05
2022-11-26T09:11:50.827Z,109.32
2022-11-26T09:14:24.794Z,83.22
2022-11-26T09:16:52.022Z,111.45
2022-11-26T09:19:19.013Z,91.30
2022-11-26T09:21:46.405Z,102.00
2022-11-26T09:24:13.728Z,132.82
2022-11-26T09:26:40.859Z,100.30
2022-11-26T09:29:07.505Z,100.65
2022-11-26T09:31:34.284Z,112.35
2022-11-26T09:34:01.787Z,107.10
2022-11-26T09:36:29.035Z,96.18
2022-11-26T09:38:56.730Z,87.90
2022-11-26T09:41:53.044Z,89.85
2022-11-26T09:44:19.561Z,93.43
2022-11-26T09:47:10.962Z,77.25
2022-11-26T09:49:55.109Z,121.68
2022-11-26T09:52:25.332Z,65.68
2022-11-26T09:54:58.530Z,92.97
2022-11-26T09:57:41.053Z,76.28
2022-11-26T10:00:36.189Z,56.70
2022-11-26T10:03:18.895Z,110.53
2022-11-26T10:05:58.853Z,64.93
2022-11-26T10:08:59.591Z,113.97
2022-11-26T10:11:38.166Z,107.72
2022-11-26T10:14:29.811Z,88.93
2022-11-26T10:17:32.558Z,80.30
2022-11-26T10:20:19.234Z,79.53
2022-11-26T10:23:05.433Z,71.55
2022-11-26T10:25:47.033Z,92.07
2022-11-26T10:28:40.780Z,67.00
2022-11-26T10:31:17.341Z,76.20
2022-11-26T10:33:52.924Z,67.07
2022-11-26T10:36:25.410Z,57.50
2022-11-26T10:38:53.259Z,63.10
2022-11-26T10:41:21.193Z,58.15
2022-11-26T10:43:47.866Z,62.25
2022-11-26T10:46:31.799Z,59.40
2022-11-26T10:49:25.426Z,58.53
2022-11-26T10:52:00.750Z,80.97
2022-11-26T10:54:33.443Z,58.17
2022-11-26T10:57:09.631Z,53.72
2022-11-26T10:59:44.881Z,52.72
2022-11-26T11:02:17.727Z,50.63
2022-11-26T11:04:48.111Z,51.78
2022-11-26T11:07:38.002Z,61.58
2022-11-26T11:10:18.771Z,58.50
2022-11-26T11:13:03.923Z,56.25
2022-11-26T11:15:33.725Z,66.78
2022-11-26T11:18:11.105Z,68.28
2022-11-26T11:20:40.215Z,65.30
2022-11-26T11:23:20.045Z,60.90
2022-11-26T11:26:08.324Z,58.47
2022-11-26T11:28:39.193Z,61.78
2022-11-26T11:31:14.293Z,51.08
2022-11-26T11:33:41.321Z,49.25
2022-11-26T11:36:14.016Z,48.95
2022-11-26T11:38:48.826Z,51.83
2022-11-26T11:41:41.627Z,59.15
2022-11-26T11:44:31.317Z,49.33
2022-11-26T11:47:25.241Z,48.38
2022-11-26T11:50:19.867Z,51.03
2022-11-26T11:53:15.945Z,51.88
2022-11-26T11:56:22.276Z,48.85
2022-11-26T11:59:06.968Z,57.08
2022-11-26T12:02:08.545Z,59.88
2022-11-26T12:05:06.902Z,63.88
2022-11-26T12:07:43.650Z,53.90
2022-11-26T12:10:21.725Z,49.15
2022-11-26T12:12:52.790Z,56.88
2022-11-26T12:15:30.096Z,45.45
2022-11-26T12:18:18.077Z,50.75
2022-11-26T12:20:58.790Z,57.72
2022-11-26T12:23:43.528Z,54.17
2022-11-26T12:26:15.475Z,55.45
2022-11-26T12:28:59.496Z,61.42
2022-11-26T12:31:41.993Z,58.30
2022-11-26T12:34:12.597Z,51.88
2022-11-26T12:36:53.812Z,49.85
2022-11-26T12:39:54.926Z,52.97
2022-11-26T12:42:34.714Z,47.60
2022-11-26T12:45:34.675Z,53.40
2022-11-26T12:48:10.379Z,53.75
2022-11-26T12:50:47.326Z,59.08
2022-11-26T12:53:20.057Z,72.22
2022-11-26T12:56:15.406Z,69.68
2022-11-26T12:58:57.545Z,67.72
2022-11-26T13:01:27.864Z,93.07
2022-11-26T13:04:14.435Z,56.10
2022-11-26T13:07:14.034Z,59.40
2022-11-26T13:09:51.875Z,53.38
2022-11-26T13:12:31.203Z,49.30
2022-11-26T13:15:06.898Z,45.42
2022-11-26T13:17:47.509Z,44.63
2022-11-26T13:20:52.387Z,50.05
2022-11-26T13:23:51.472Z,41.20
2022-11-26T13:26:37.184Z,45.88
2022-11-26T13:29:29.736Z,47.22
2022-11-26T13:32:16.852Z,46.38
2022-11-26T13:35:02.997Z,48.67
2022-11-26T13:38:03.878Z,42.33
2022-11-26T13:40:49.308Z,51.58
2022-11-26T13:43:34.630Z,54.78
2022-11-26T13:46:30.237Z,46.65
2022-11-26T13:49:06.784Z,46.08
2022-11-26T13:51:48.990Z,49.65
2022-11-26T13:54:21.548Z,45.70
2022-11-26T13:56:49.758Z,42.55
2022-11-26T13:59:28.386Z,47.00
2022-11-26T14:01:55.767Z,49.90
2022-11-26T14:04:22.337Z,42.10
2022-11-26T14:07:04.233Z,49.40
2022-11-26T14:09:42.707Z,43.80
2022-11-26T14:12:10.854Z,52.22
2022-11-26T14:14:39.228Z,48.72
2022-11-26T14:17:08.970Z,67.00
2022-11-26T14:19:42.203Z,65.30
2022-11-26T14:22:11.485Z,48.33
2022-11-26T14:25:05.261Z,52.00
2022-11-26T14:27:40.337Z,56.92
2022-11-26T14:30:06.892Z,54.20
2022-11-26T14:32:59.219Z,58.47
2022-11-26T14:35:34.613Z,55.13
2022-11-26T14:38:05.158Z,55.55
2022-11-26T14:40:35.292Z,57.60
2022-11-26T14:43:16.128Z,57.92
2022-11-26T14:45:45.517Z,55.90
2022-11-26T14:48:25.466Z,59.35
2022-11-26T14:50:54.087Z,66.93
2022-11-26T14:53:23.695Z,61.08
2022-11-26T14:55:51.167Z,55.88
2022-11-26T14:58:31.233Z,52.35
2022-11-26T15:01:03.549Z,56.42
2022-11-26T15:03:30.236Z,46.33
2022-11-26T15:05:56.916Z,58.85
2022-11-26T15:08:26.834Z,60.33
2022-11-26T15:11:06.676Z,54.60
2022-11-26T15:13:43.124Z,53.72
2022-11-26T15:16:33.636Z,56.88
2022-11-26T15:19:01.909Z,56.15
2022-11-26T15:21:28.970Z,53.60
2022-11-26T15:24:00.230Z,54.67
2022-11-26T15:26:32.871Z,52.95
2022-11-26T15:28:59.573Z,55.20
2022-11-26T15:31:42.622Z,52.85
2022-11-26T15:34:13.815Z,54.75
2022-11-26T15:36:40.554Z,53.45
2022-11-26T15:39:23.455Z,61.65
2022-11-26T15:41:50.928Z,62.47
2022-11-26T15:44:24.140Z,53.40
2022-11-26T15:46:54.071Z,57.38
2022-11-26T15:49:29.139Z,54.35
2022-11-26T15:52:03.797Z,60.00
2022-11-26T15:55:04.683Z,59.92
2022-11-26T15:57:28.149Z,72.53
2022-11-26T15:59:59.070Z,61.20
2022-11-26T16:02:27.721Z,63.95
2022-11-26T16:04:57.197Z,64.45
2022-11-26T16:07:27.413Z,64.75
2022-11-26T16:10:16.231Z,65.88
2022-11-26T16:12:44.885Z,61.75
2022-11-26T16:15:18.037Z,65.13
2022-11-26T16:17:45.784Z,65.72
2022-11-26T16:20:21.904Z,62.28
2022-11-26T16:22:52.020Z,78.97
2022-11-26T16:25:31.966Z,55.53
2022-11-26T16:28:11.087Z,66.35
2022-11-26T16:30:39.686Z,59.72
2022-11-26T16:33:06.793Z,62.25
2022-11-26T16:35:49.161Z,58.53
2022-11-26T16:38:21.464Z,68.75
2022-11-26T16:40:48.502Z,59.95
2022-11-26T16:43:15.611Z,67.15
2022-11-26T16:45:42.256Z,76.72
2022-11-26T16:48:27.055Z,68.65
2022-11-26T16:50:55.010Z,65.93
2022-11-26T16:53:22.240Z,67.55
2022-11-26T16:55:49.944Z,69.68
2022-11-26T16:58:25.745Z,85.25
2022-11-26T17:00:52.467Z,71.28
2022-11-26T17:03:23.422Z,82.03
2022-11-26T17:05:56.516Z,71.68
2022-11-26T17:08:23.516Z,70.47
2022-11-26T17:10:51.205Z,76.43
2022-11-26T17:13:18.873Z,72.07
2022-11-26T17:15:45.625Z,70.50
2022-11-26T17:18:22.707Z,71.18
2022-11-26T17:20:50.992Z,71.07
2022-11-26T17:23:18.134Z,74.43
2022-11-26T17:25:47.025Z,74.68
2022-11-26T17:28:15.403Z,70.20
2022-11-26T17:30:43.675Z,79.53
2022-11-26T17:33:11.354Z,75.28
2022-11-26T17:35:38.390Z,77.50
2022-11-26T17:38:14.370Z,87.72
2022-11-26T17:40:41.935Z,77.80
2022-11-26T17:43:08.918Z,80.80
2022-11-26T17:45:35.582Z,77.88
2022-11-26T17:48:02.218Z,83.88
2022-11-26T17:50:30.486Z,72.80
2022-11-26T17:52:57.202Z,87.13
2022-11-26T17:55:26.358Z,80.45
2022-11-26T17:57:53.284Z,81.13
2022-11-26T18:00:27.993Z,82.75
2022-11-26T18:02:55.003Z,73.38
2022-11-26T18:05:22.521Z,75.25
2022-11-26T18:07:49.925Z,77.95
2022-11-26T18:10:18.450Z,75.47
2022-11-26T18:12:45.601Z,84.32
2022-11-26T18:15:21.221Z,81.75
2022-11-26T18:17:53.177Z,85.53
2022-11-26T18:20:23.004Z,88.18
2022-11-26T18:22:51.309Z,81.65
2022-11-26T18:25:17.895Z,77.90
2022-11-26T18:27:44.863Z,71.63
2022-11-26T18:30:12.104Z,73.40
2022-11-26T18:32:39.486Z,77.93
2022-11-26T18:35:07.194Z,77.60
2022-11-26T18:37:35.193Z,80.50
2022-11-26T18:40:02.013Z,81.45
2022-11-26T18:42:37.212Z,78.45
2022-11-26T18:45:06.252Z,69.97
2022-11-26T18:47:33.236Z,74.82
2022-11-26T18:49:59.905Z,78.68
2022-11-26T18:52:26.713Z,70.30
2022-11-26T18:54:53.319Z,78.20
2022-11-26T18:57:20.019Z,79.95
2022-11-26T18:59:46.693Z,80.40
2022-11-26T19:02:13.734Z,83.68
2022-11-26T19:04:40.471Z,87.38
2022-11-26T19:07:07.186Z,79.25
2022-11-26T19:09:33.868Z,78.78
2022-11-26T19:12:00.549Z,86.25
2022-11-26T19:14:27.173Z,83.13
2022-11-26T19:16:53.934Z,90.65
2022-11-26T19:19:20.866Z,97.97
2022-11-26T19:21:47.432Z,84.57
2022-11-26T19:24:14.854Z,79.70
2022-11-26T19:26:42.092Z,77.13
2022-11-26T19:29:10.979Z,83.05
2022-11-26T19:31:39.642Z,78.63
2022-11-26T19:34:12.187Z,71.15
2022-11-26T19:36:38.817Z,92.07
2022-11-26T19:39:06.970Z,87.22
2022-11-26T19:41:35.213Z,88.63
2022-11-26T19:44:03.943Z,75.75
2022-11-26T19:46:32.079Z,90.47
2022-11-26T19:48:58.874Z,80.80
2022-11-26T19:51:27.595Z,81.32
2022-11-26T19:53:56.081Z,81.78
2022-11-26T19:56:24.427Z,86.85
2022-11-26T19:58:51.433Z,82.20
2022-11-26T20:01:18.336Z,71.90
2022-11-26T20:03:45.197Z,83.93
2022-11-26T20:06:16.675Z,81.57
2022-11-26T20:08:43.396Z,85.75
2022-11-26T20:11:11.134Z,84.72
2022-11-26T20:13:40.263Z,88.88
2022-11-26T20:16:13.521Z,85.82
2022-11-26T20:18:40.361Z,88.00
2022-11-26T20:21:19.811Z,85.53
2022-11-26T20:23:47.495Z,82.70
2022-11-26T20:26:16.415Z,94.20
2022-11-26T20:28:43.661Z,95.65
2022-11-26T20:31:11.348Z,95.80
2022-11-26T20:33:38.126Z,84.60
2022-11-26T20:36:09.772Z,95.68
2022-11-26T20:38:37.376Z,90.55
2022-11-26T20:41:15.654Z,96.80
2022-11-26T20:43:42.568Z,91.40
2022-11-26T20:46:11.432Z,75.05
2022-11-26T20:48:39.719Z,79.80
2022-11-26T20:51:08.698Z,77.03
2022-11-26T20:53:36.979Z,86.85
2022-11-26T20:56:04.965Z,85.93
2022-11-26T20:58:31.903Z,88.82
2022-11-26T21:00:59.649Z,82.07
2022-11-26T21:03:27.833Z,81.28
2022-11-26T21:05:55.062Z,78.00
2022-11-26T21:08:23.155Z,81.13
2022-11-26T21:10:50.173Z,79.78
2022-11-26T21:13:18.834Z,69.85
2022-11-26T21:15:48.790Z,77.30
2022-11-26T21:18:15.543Z,92.35
2022-11-26T21:20:43.637Z,80.63
2022-11-26T21:23:12.154Z,94.50
2022-11-26T21:25:40.632Z,87.15
2022-11-26T21:28:08.276Z,97.45
2022-11-26T21:30:35.731Z,74.78
2022-11-26T21:33:08.689Z,78.65
2022-11-26T21:35:35.824Z,83.00
2022-11-26T21:38:02.431Z,91.57
2022-11-26T21:40:29.452Z,85.37
2022-11-26T21:42:56.218Z,66.60
2022-11-26T21:45:22.969Z,73.95
2022-11-26T21:47:51.184Z,77.20
2022-11-26T21:50:19.166Z,79.00
2022-11-26T21:52:46.733Z,80.07
2022-11-26T21:55:13.981Z,70.38
2022-11-26T21:57:41.028Z,80.78
2022-11-26T22:00:08.695Z,76.05
2022-11-26T22:02:35.947Z,74.55
2022-11-26T22:05:03.091Z,64.85
2022-11-26T22:07:30.856Z,74.20
2022-11-26T22:09:57.904Z,67.63
2022-11-26T22:12:24.849Z,73.43
2022-11-26T22:14:51.827Z,76.57
2022-11-26T22:17:18.745Z,70.28
2022-11-26T22:19:45.788Z,61.65
2022-11-26T22:22:12.628Z,56.80
2022-11-26T22:24:40.086Z,69.70
2022-11-26T22:27:07.131Z,70.45
2022-11-26T22:29:34.076Z,69.30
2022-11-26T22:32:01.024Z,70.60
2022-11-26T22:34:29.301Z,73.50
2022-11-26T22:36:56.241Z,63.15
2022-11-26T22:39:23.188Z,64.80
2022-11-26T22:41:50.336Z,58.20
2022-11-26T22:44:17.796Z,62.72
2022-11-26T22:46:45.469Z,59.15
2022-11-26T22:49:19.022Z,60.72
2022-11-26T22:51:47.514Z,62.83
2022-11-26T22:54:16.122Z,62.33
2022-11-26T22:56:43.065Z,59.88
2022-11-26T22:59:13.083Z,61.38
2022-11-26T23:01:40.130Z,55.75
2022-11-26T23:04:09.273Z,61.40
2022-11-26T23:06:37.711Z,57.53
2022-11-26T23:09:06.905Z,67.25
2022-11-26T23:11:37.842Z,64.07
2022-11-26T23:14:07.607Z,57.65
2022-11-26T23:16:36.295Z,52.10
2022-11-26T23:19:04.109Z,54.22
2022-11-26T23:21:33.711Z,59.08
2022-11-26T23:24:00.855Z,58.35
2022-11-26T23:26:30.550Z,58.20
2022-11-26T23:28:59.017Z,63.95
2022-11-26T23:31:28.622Z,49.42
2022-11-26T23:33:55.347Z,60.25
2022-11-26T23:36:22.942Z,56.03
2022-11-26T23:38:50.083Z,51.40
2022-11-26T23:41:17.148Z,50.53
2022-11-26T23:43:44.689Z,60.13
2022-11-26T23:46:26.691Z,47.57
2022-11-26T23:48:53.891Z,54.90
2022-11-26T23:51:26.201Z,53.03
2022-11-26T23:53:53.708Z,55.43
2022-11-26T23:56:23.440Z,49.15
2022-11-26T23:58:55.634Z,57.63
